createdAt,value
2022-08-18T00:00:33.114Z,90.43
2022-08-18T00:01:28.748Z,90.46
2022-08-18T00:02:28.891Z,90.46
2022-08-18T00:03:53.243Z,90.46
2022-08-18T00:04:24.262Z,90.55
2022-08-18T00:05:11.364Z,90.52
2022-08-18T00:06:05.643Z,90.44
2022-08-18T00:07:00.821Z,90.40
2022-08-18T00:07:57.198Z,90.43
2022-08-18T00:08:53.132Z,90.49
2022-08-18T00:09:48.352Z,90.51
2022-08-18T00:10:43.698Z,90.50
2022-08-18T00:11:40.432Z,90.60
2022-08-18T00:12:34.689Z,90.59
2022-08-18T00:13:29.973Z,90.70
2022-08-18T00:14:25.866Z,90.71
2022-08-18T00:15:20.994Z,90.92
2022-08-18T00:16:16.437Z,91.12
2022-08-18T00:17:12.174Z,91.41
2022-08-18T00:18:07.474Z,91.43
2022-08-18T00:19:07.083Z,91.38
2022-08-18T00:20:00.138Z,91.29
2022-08-18T00:20:54.240Z,91.18
2022-08-18T00:21:50.081Z,90.88
2022-08-18T00:22:45.378Z,90.73
2022-08-18T00:23:40.599Z,90.65
2022-08-18T00:24:35.776Z,90.61
2022-08-18T00:25:31.558Z,90.81
2022-08-18T00:26:26.706Z,91.12
2022-08-18T00:27:23.534Z,91.14
2022-08-18T00:28:17.815Z,91.21
2022-08-18T00:29:12.986Z,91.19
2022-08-18T00:30:08.150Z,91.15
2022-08-18T00:31:04.660Z,91.22
2022-08-18T00:31:59.984Z,91.25
2022-08-18T00:32:55.905Z,91.14
2022-08-18T00:33:51.035Z,91.06
2022-08-18T00:34:46.226Z,91.01
2022-08-18T00:35:42.093Z,90.90
2022-08-18T00:36:37.307Z,90.92
2022-08-18T00:37:33.034Z,91.26
2022-08-18T00:38:28.184Z,91.44
2022-08-18T00:39:23.514Z,91.36
2022-08-18T00:40:18.732Z,91.33
2022-08-18T00:41:13.892Z,91.28
2022-08-18T00:42:08.904Z,91.11
2022-08-18T00:43:03.942Z,91.01
2022-08-18T00:43:59.002Z,90.80
2022-08-18T00:44:58.364Z,91.03
2022-08-18T00:45:53.656Z,90.92
2022-08-18T00:46:48.988Z,90.82
2022-08-18T00:47:44.269Z,90.85
2022-08-18T00:48:40.401Z,90.92
2022-08-18T00:49:36.578Z,90.81
2022-08-18T00:50:30.841Z,90.99
2022-08-18T00:51:29.923Z,90.96
2022-08-18T00:52:25.073Z,91.07
2022-08-18T00:53:20.307Z,91.15
2022-08-18T00:54:15.443Z,91.10
2022-08-18T00:55:10.755Z,90.86
2022-08-18T00:56:05.939Z,91.07
2022-08-18T00:57:02.068Z,91.45
2022-08-18T00:57:57.382Z,91.71
2022-08-18T00:58:52.604Z,91.87
2022-08-18T00:59:47.741Z,91.83
2022-08-18T01:00:42.792Z,91.91
2022-08-18T01:01:37.837Z,91.74
2022-08-18T01:02:32.877Z,91.65
2022-08-18T01:03:28.064Z,91.50
2022-08-18T01:04:23.118Z,91.38
2022-08-18T01:05:18.151Z,91.39
2022-08-18T01:06:13.200Z,91.33
2022-08-18T01:07:08.211Z,91.63
2022-08-18T01:08:03.244Z,91.78
2022-08-18T01:08:58.293Z,91.81
2022-08-18T01:09:53.304Z,91.97
2022-08-18T01:10:48.371Z,91.90
2022-08-18T01:11:43.375Z,91.92
2022-08-18T01:12:45.377Z,91.99
2022-08-18T01:13:34.504Z,92.08
2022-08-18T01:14:29.387Z,92.05
2022-08-18T01:15:29.235Z,92.13
2022-08-18T01:16:20.737Z,92.10
2022-08-18T01:17:14.978Z,92.12
2022-08-18T01:18:10.153Z,92.20
2022-08-18T01:19:05.293Z,92.29
2022-08-18T01:20:00.485Z,92.23
2022-08-18T01:20:55.653Z,92.20
2022-08-18T01:21:51.065Z,92.06
2022-08-18T01:22:46.099Z,91.93
2022-08-18T01:23:44.924Z,91.93
2022-08-18T01:24:40.060Z,91.96
2022-08-18T01:25:35.213Z,91.93
2022-08-18T01:26:30.482Z,91.84
2022-08-18T01:27:25.679Z,91.81
2022-08-18T01:28:20.878Z,91.79
2022-08-18T01:29:19.052Z,91.75
2022-08-18T01:30:11.029Z,91.74
2022-08-18T01:31:06.100Z,91.70
2022-08-18T01:32:04.410Z,91.61
2022-08-18T01:32:59.722Z,91.61
2022-08-18T01:33:55.003Z,91.78
2022-08-18T01:34:50.739Z,91.82
2022-08-18T01:35:45.935Z,91.60
2022-08-18T01:36:41.078Z,91.60
2022-08-18T01:37:37.515Z,91.70
2022-08-18T01:38:32.725Z,91.83
2022-08-18T01:41:11.134Z,91.66
2022-08-18T01:41:22.377Z,91.67
2022-08-18T01:41:28.363Z,91.68
2022-08-18T01:42:16.687Z,91.90
2022-08-18T01:43:11.488Z,91.96
2022-08-18T01:44:06.648Z,91.93
2022-08-18T01:45:02.229Z,92.05
2022-08-18T01:45:57.788Z,92.15
2022-08-18T01:46:53.103Z,92.12
2022-08-18T01:47:48.891Z,92.10
2022-08-18T01:48:44.148Z,92.08
2022-08-18T01:49:39.323Z,91.93
2022-08-18T01:50:35.094Z,92.15
2022-08-18T01:51:39.514Z,92.27
2022-08-18T01:52:26.466Z,92.03
2022-08-18T01:53:20.687Z,91.95
2022-08-18T01:54:16.684Z,92.22
2022-08-18T01:55:11.748Z,92.38
2022-08-18T01:56:07.086Z,92.44
2022-08-18T01:57:02.153Z,92.57
2022-08-18T01:57:57.190Z,92.47
2022-08-18T01:58:52.261Z,92.42
2022-08-18T01:59:47.362Z,92.45
2022-08-18T02:00:42.441Z,92.39
2022-08-18T02:01:37.499Z,92.33
2022-08-18T02:02:33.541Z,92.04
2022-08-18T02:03:27.661Z,91.96
2022-08-18T02:04:37.982Z,91.88
2022-08-18T02:05:18.698Z,91.81
2022-08-18T02:06:14.636Z,91.87
2022-08-18T02:07:07.855Z,92.29
2022-08-18T02:08:02.930Z,92.42
2022-08-18T02:08:58.137Z,92.32
2022-08-18T02:09:53.143Z,92.28
2022-08-18T02:10:52.355Z,92.58
2022-08-18T02:11:47.365Z,92.74
2022-08-18T02:12:42.466Z,92.65
2022-08-18T02:13:37.514Z,92.54
2022-08-18T02:14:32.597Z,92.64
2022-08-18T02:15:27.588Z,92.77
2022-08-18T02:16:22.669Z,92.86
2022-08-18T02:17:17.707Z,92.97
2022-08-18T02:18:12.761Z,93.22
2022-08-18T02:19:07.812Z,93.22
2022-08-18T02:20:03.024Z,93.29
2022-08-18T02:20:58.074Z,93.35
2022-08-18T02:21:53.130Z,93.35
2022-08-18T02:22:48.164Z,93.36
2022-08-18T02:23:52.135Z,93.53
2022-08-18T02:24:40.172Z,93.67
2022-08-18T02:25:34.393Z,93.75
2022-08-18T02:26:30.261Z,93.73
2022-08-18T02:27:25.292Z,93.76
2022-08-18T02:28:20.751Z,93.75
2022-08-18T02:29:16.505Z,93.72
2022-08-18T02:30:11.643Z,93.72
2022-08-18T02:31:07.235Z,93.67
2022-08-18T02:32:02.509Z,93.61
2022-08-18T02:32:57.681Z,93.58
2022-08-18T02:33:53.562Z,93.63
2022-08-18T02:34:48.851Z,93.39
2022-08-18T02:35:44.841Z,93.31
2022-08-18T02:36:40.011Z,93.29
2022-08-18T02:37:35.319Z,93.25
2022-08-18T02:38:31.042Z,93.12
2022-08-18T02:39:26.484Z,93.21
2022-08-18T02:40:21.824Z,93.41
2022-08-18T02:41:17.919Z,93.54
2022-08-18T02:42:13.089Z,93.57
2022-08-18T02:43:08.945Z,93.54
2022-08-18T02:44:04.235Z,93.53
2022-08-18T02:44:59.539Z,93.63
2022-08-18T02:45:55.162Z,93.55
2022-08-18T02:46:50.451Z,93.53
2022-08-18T02:47:45.664Z,93.33
2022-08-18T02:48:40.807Z,93.26
2022-08-18T02:49:35.987Z,93.14
2022-08-18T02:50:31.037Z,93.09
2022-08-18T02:51:26.201Z,92.84
2022-08-18T02:52:21.199Z,92.70
2022-08-18T02:53:16.265Z,92.65
2022-08-18T02:54:11.305Z,92.60
2022-08-18T02:55:06.385Z,92.63
2022-08-18T02:56:01.441Z,92.66
2022-08-18T02:56:56.474Z,92.65
2022-08-18T02:57:51.615Z,92.43
2022-08-18T02:58:46.586Z,92.45
2022-08-18T02:59:41.624Z,92.37
2022-08-18T03:00:36.690Z,92.23
2022-08-18T03:01:31.891Z,92.19
2022-08-18T03:02:26.957Z,92.04
2022-08-18T03:03:21.964Z,91.86
2022-08-18T03:04:17.024Z,92.05
2022-08-18T03:05:15.476Z,92.09
2022-08-18T03:06:10.624Z,91.99
2022-08-18T03:07:05.964Z,92.08
2022-08-18T03:08:01.127Z,92.02
2022-08-18T03:08:57.368Z,92.04
2022-08-18T03:09:52.670Z,91.95
2022-08-18T03:10:47.837Z,91.66
2022-08-18T03:11:43.582Z,91.60
2022-08-18T03:12:38.194Z,91.57
2022-08-18T03:13:33.369Z,91.49
2022-08-18T03:14:28.667Z,91.30
2022-08-18T03:15:23.959Z,91.19
2022-08-18T03:16:19.028Z,91.17
2022-08-18T03:17:14.379Z,91.01
2022-08-18T03:18:09.579Z,91.04
2022-08-18T03:19:04.859Z,91.05
2022-08-18T03:20:00.177Z,91.19
2022-08-18T03:20:55.379Z,91.35
2022-08-18T03:21:51.234Z,91.52
2022-08-18T03:22:46.307Z,91.67
2022-08-18T03:23:41.550Z,91.59
2022-08-18T03:24:36.936Z,91.72
2022-08-18T03:25:32.117Z,91.89
2022-08-18T03:26:27.586Z,92.07
2022-08-18T03:27:22.765Z,92.23
2022-08-18T03:28:18.087Z,92.33
2022-08-18T03:29:13.380Z,92.39
2022-08-18T03:30:11.528Z,92.64
2022-08-18T03:31:03.792Z,92.77
2022-08-18T03:31:59.088Z,92.65
2022-08-18T03:32:54.284Z,92.37
2022-08-18T03:33:49.445Z,92.21
2022-08-18T03:34:44.654Z,92.18
2022-08-18T03:35:39.805Z,92.34
2022-08-18T03:36:35.101Z,92.48
2022-08-18T03:37:30.283Z,92.47
2022-08-18T03:38:25.607Z,92.46
2022-08-18T03:39:20.842Z,92.35
2022-08-18T03:40:16.063Z,92.34
2022-08-18T03:41:11.268Z,92.34
2022-08-18T03:42:06.432Z,92.25
2022-08-18T03:43:02.154Z,92.12
2022-08-18T03:43:56.989Z,91.76
2022-08-18T03:44:52.186Z,91.78
2022-08-18T03:45:47.457Z,91.79
2022-08-18T03:46:42.770Z,91.67
2022-08-18T03:47:37.972Z,91.51
2022-08-18T03:48:33.141Z,91.28
2022-08-18T03:49:28.427Z,91.04
2022-08-18T03:50:23.567Z,90.82
2022-08-18T03:51:18.820Z,90.82
2022-08-18T03:52:14.070Z,90.89
2022-08-18T03:53:09.337Z,90.69
2022-08-18T03:54:04.356Z,90.67
2022-08-18T03:54:59.382Z,90.80
2022-08-18T03:55:54.487Z,90.93
2022-08-18T03:56:52.658Z,90.94
2022-08-18T03:57:47.719Z,90.92
2022-08-18T03:58:42.924Z,90.94
2022-08-18T03:59:38.017Z,90.94
2022-08-18T04:00:33.109Z,90.89
2022-08-18T04:01:28.353Z,90.86
2022-08-18T04:02:23.591Z,90.83
2022-08-18T04:03:18.484Z,90.79
2022-08-18T04:04:13.603Z,90.88
2022-08-18T04:05:08.657Z,90.82
2022-08-18T04:06:03.740Z,90.86
2022-08-18T04:06:58.904Z,91.01
2022-08-18T04:07:53.825Z,91.14
2022-08-18T04:08:48.884Z,90.98
2022-08-18T04:09:43.995Z,91.07
2022-08-18T04:10:39.085Z,91.18
2022-08-18T04:11:36.586Z,91.00
2022-08-18T04:12:29.265Z,91.09
2022-08-18T04:13:24.362Z,91.21
2022-08-18T04:14:19.473Z,91.32
2022-08-18T04:15:14.488Z,91.36
2022-08-18T04:16:09.522Z,91.48
2022-08-18T04:17:04.545Z,91.66
2022-08-18T04:18:03.828Z,91.86
2022-08-18T04:18:54.651Z,91.90
2022-08-18T04:19:49.691Z,91.80
2022-08-18T04:20:59.483Z,91.79
2022-08-18T04:21:40.834Z,91.72
2022-08-18T04:22:35.090Z,91.61
2022-08-18T04:23:30.412Z,91.67
2022-08-18T04:24:28.226Z,91.76
2022-08-18T04:25:21.030Z,91.78
2022-08-18T04:26:19.337Z,91.73
2022-08-18T04:27:11.901Z,91.70
2022-08-18T04:28:07.107Z,91.85
2022-08-18T04:29:02.430Z,92.00
2022-08-18T04:29:57.784Z,92.12
2022-08-18T04:30:53.107Z,92.14
2022-08-18T04:31:48.460Z,92.22
2022-08-18T04:32:43.830Z,92.07
2022-08-18T04:33:39.166Z,92.01
2022-08-18T04:34:34.627Z,91.80
2022-08-18T04:35:29.837Z,91.68
2022-08-18T04:36:25.184Z,91.57
2022-08-18T04:37:20.537Z,91.49
2022-08-18T04:38:15.865Z,91.42
2022-08-18T04:39:11.196Z,91.37
2022-08-18T04:40:06.617Z,91.39
2022-08-18T04:41:01.979Z,91.35
2022-08-18T04:41:57.364Z,91.38
2022-08-18T04:42:52.804Z,91.38
2022-08-18T04:43:48.166Z,91.33
2022-08-18T04:44:43.687Z,91.32
2022-08-18T04:45:38.973Z,91.30
2022-08-18T04:46:34.358Z,91.18
2022-08-18T04:47:29.798Z,91.27
2022-08-18T04:48:25.173Z,91.24
2022-08-18T04:49:20.562Z,91.23
2022-08-18T04:50:15.959Z,91.29
2022-08-18T04:51:11.303Z,91.28
2022-08-18T04:52:37.357Z,91.29
2022-08-18T04:53:07.404Z,91.32
2022-08-18T04:54:01.753Z,91.46
2022-08-18T04:54:57.172Z,91.58
2022-08-18T04:55:52.644Z,91.59
2022-08-18T04:56:48.153Z,91.73
2022-08-18T04:57:43.200Z,91.77
2022-08-18T04:58:38.304Z,91.76
2022-08-18T04:59:33.360Z,91.52
2022-08-18T05:00:28.382Z,91.29
2022-08-18T05:01:23.494Z,90.94
2022-08-18T05:02:18.523Z,90.77
2022-08-18T05:03:13.580Z,90.63
2022-08-18T05:04:08.608Z,90.64
2022-08-18T05:05:03.656Z,90.71
2022-08-18T05:05:58.702Z,90.79
2022-08-18T05:06:53.997Z,90.84
2022-08-18T05:07:49.431Z,90.86
2022-08-18T05:08:45.041Z,90.82
2022-08-18T05:09:41.265Z,90.81
2022-08-18T05:10:35.901Z,90.57
2022-08-18T05:11:31.390Z,90.47
2022-08-18T05:12:26.958Z,90.43
2022-08-18T05:13:22.447Z,90.35
2022-08-18T05:14:17.902Z,90.34
2022-08-18T05:15:13.305Z,90.31
2022-08-18T05:16:11.664Z,90.15
2022-08-18T05:17:04.397Z,90.05
2022-08-18T05:17:59.831Z,89.92
2022-08-18T05:18:55.591Z,89.82
2022-08-18T05:19:50.885Z,89.87
2022-08-18T05:20:46.293Z,89.81
2022-08-18T05:21:41.734Z,89.75
2022-08-18T05:22:36.778Z,89.83
2022-08-18T05:23:31.893Z,89.78
2022-08-18T05:24:30.798Z,89.52
2022-08-18T05:25:22.972Z,89.50
2022-08-18T05:26:17.072Z,89.53
2022-08-18T05:27:12.107Z,89.69
2022-08-18T05:28:07.123Z,90.03
2022-08-18T05:29:18.057Z,90.35
2022-08-18T05:29:58.215Z,90.61
2022-08-18T05:30:52.452Z,90.85
2022-08-18T05:31:48.820Z,90.91
2022-08-18T05:32:49.041Z,90.82
2022-08-18T05:33:40.626Z,90.71
2022-08-18T05:34:35.109Z,90.47
2022-08-18T05:35:30.669Z,90.30
2022-08-18T05:36:26.099Z,90.23
2022-08-18T05:37:21.580Z,90.05
2022-08-18T05:38:17.138Z,90.29
2022-08-18T05:39:12.568Z,90.54
2022-08-18T05:40:11.305Z,90.30
2022-08-18T05:41:03.412Z,90.02
2022-08-18T05:41:59.162Z,89.92
2022-08-18T05:42:54.490Z,90.07
2022-08-18T05:43:49.908Z,90.40
2022-08-18T05:44:45.390Z,90.42
2022-08-18T05:45:40.386Z,90.43
2022-08-18T05:46:35.437Z,90.18
2022-08-18T05:47:30.515Z,89.94
2022-08-18T05:48:25.533Z,90.15
2022-08-18T05:49:20.595Z,90.01
2022-08-18T05:50:15.646Z,89.67
2022-08-18T05:51:10.721Z,89.59
2022-08-18T05:52:05.761Z,89.72
2022-08-18T05:53:00.795Z,89.84
2022-08-18T05:53:55.796Z,90.11
2022-08-18T05:54:50.847Z,90.31
2022-08-18T05:55:47.896Z,90.18
2022-08-18T05:56:41.036Z,90.12
2022-08-18T05:57:36.093Z,89.85
2022-08-18T05:58:33.248Z,89.42
2022-08-18T05:59:26.173Z,89.29
2022-08-18T06:00:21.216Z,89.40
2022-08-18T06:02:40.133Z,90.32
2022-08-18T06:03:45.541Z,90.69
2022-08-18T06:04:31.630Z,90.46
2022-08-18T06:05:26.127Z,90.21
2022-08-18T06:06:21.567Z,90.53
2022-08-18T06:07:17.154Z,90.68
2022-08-18T06:08:12.469Z,90.70
2022-08-18T06:09:07.897Z,90.29
2022-08-18T06:10:03.350Z,89.67
2022-08-18T06:10:58.784Z,88.94
2022-08-18T06:11:54.184Z,88.66
2022-08-18T06:12:49.664Z,88.93
2022-08-18T06:13:45.222Z,88.77
2022-08-18T06:14:40.644Z,88.82
2022-08-18T06:15:36.114Z,89.30
2022-08-18T06:16:31.524Z,89.24
2022-08-18T06:17:27.082Z,89.22
2022-08-18T06:18:22.428Z,89.39
2022-08-18T06:19:17.833Z,89.74
2022-08-18T06:20:13.308Z,89.85
2022-08-18T06:21:08.750Z,89.87
2022-08-18T06:22:04.176Z,89.81
2022-08-18T06:22:59.626Z,89.50
2022-08-18T06:23:55.188Z,89.33
2022-08-18T06:24:50.617Z,89.18
2022-08-18T06:25:46.146Z,89.39
2022-08-18T06:26:41.718Z,89.49
2022-08-18T06:27:37.160Z,89.52
2022-08-18T06:28:32.680Z,89.65
2022-08-18T06:29:28.253Z,89.54
2022-08-18T06:30:23.685Z,89.06
2022-08-18T06:31:19.148Z,88.88
2022-08-18T06:32:14.572Z,89.10
2022-08-18T06:33:10.010Z,89.61
2022-08-18T06:34:05.475Z,89.92
2022-08-18T06:35:00.900Z,90.05
2022-08-18T06:35:56.465Z,89.86
2022-08-18T06:36:51.774Z,89.59
2022-08-18T06:37:47.207Z,89.50
2022-08-18T06:38:45.369Z,89.46
2022-08-18T06:39:38.179Z,89.37
2022-08-18T06:40:33.615Z,89.32
2022-08-18T06:41:40.853Z,89.21
2022-08-18T06:42:25.525Z,89.15
2022-08-18T06:43:19.904Z,89.01
2022-08-18T06:44:15.474Z,89.06
2022-08-18T06:45:10.901Z,88.99
2022-08-18T06:46:06.366Z,88.82
2022-08-18T06:47:01.770Z,88.73
2022-08-18T06:47:57.182Z,88.64
2022-08-18T06:48:52.711Z,88.37
2022-08-18T06:49:48.185Z,88.19
2022-08-18T06:50:43.761Z,88.05
2022-08-18T06:51:40.935Z,87.97
2022-08-18T06:52:34.564Z,87.91
2022-08-18T06:53:30.154Z,87.89
2022-08-18T06:54:25.623Z,87.81
2022-08-18T06:55:21.050Z,87.89
2022-08-18T06:56:26.351Z,87.71
2022-08-18T06:57:12.946Z,87.86
2022-08-18T06:58:07.445Z,88.00
2022-08-18T06:59:02.884Z,88.04
2022-08-18T06:59:58.329Z,88.10
2022-08-18T07:00:54.998Z,88.17
2022-08-18T07:01:49.307Z,88.14
2022-08-18T07:02:44.919Z,87.92
2022-08-18T07:03:41.429Z,87.77
2022-08-18T07:04:36.892Z,87.81
2022-08-18T07:05:32.488Z,87.79
2022-08-18T07:06:28.058Z,87.52
2022-08-18T07:07:23.387Z,87.62
2022-08-18T07:08:18.899Z,87.70
2022-08-18T07:09:14.274Z,87.74
2022-08-18T07:10:09.744Z,87.81
2022-08-18T07:11:05.174Z,87.74
2022-08-18T07:12:00.775Z,87.71
2022-08-18T07:12:56.115Z,87.67
2022-08-18T07:14:03.717Z,87.66
2022-08-18T07:14:48.030Z,87.73
2022-08-18T07:15:42.571Z,87.76
2022-08-18T07:17:43.707Z,87.23
2022-08-18T07:18:28.804Z,87.51
2022-08-18T07:19:22.835Z,86.95
2022-08-18T07:20:17.884Z,86.79
2022-08-18T07:21:12.973Z,86.45
2022-08-18T07:22:08.092Z,86.66
2022-08-18T07:23:08.363Z,86.08
2022-08-18T07:24:21.415Z,86.32
2022-08-18T07:24:54.312Z,86.36
2022-08-18T07:25:48.390Z,86.35
2022-08-18T07:26:45.053Z,86.33
2022-08-18T07:27:40.533Z,86.26
2022-08-18T07:28:36.010Z,86.29
2022-08-18T07:29:31.316Z,86.28
2022-08-18T07:30:26.829Z,86.32
2022-08-18T07:31:22.248Z,86.51
2022-08-18T07:32:20.981Z,86.34
2022-08-18T07:33:13.063Z,86.27
2022-08-18T07:34:08.545Z,86.46
2022-08-18T07:35:04.258Z,86.36
2022-08-18T07:35:59.677Z,86.49
2022-08-18T07:36:55.087Z,86.61
2022-08-18T07:37:50.706Z,86.51
2022-08-18T07:38:45.938Z,86.39
2022-08-18T07:39:44.115Z,86.56
2022-08-18T07:40:36.957Z,86.30
2022-08-18T07:41:31.081Z,86.56
2022-08-18T07:42:37.162Z,86.58
2022-08-18T07:43:22.201Z,86.51
2022-08-18T07:44:16.196Z,86.32
2022-08-18T07:45:11.256Z,86.35
2022-08-18T07:46:06.375Z,86.48
2022-08-18T07:47:01.418Z,86.54
2022-08-18T07:47:56.486Z,86.40
2022-08-18T07:48:52.312Z,86.35
2022-08-18T07:50:16.622Z,86.49
2022-08-18T07:50:58.590Z,86.39
2022-08-18T07:51:37.799Z,86.37
2022-08-18T07:52:44.082Z,86.48
2022-08-18T07:53:29.516Z,86.62
2022-08-18T07:54:48.218Z,86.66
2022-08-18T07:55:20.526Z,86.64
2022-08-18T07:56:14.885Z,86.48
2022-08-18T07:57:10.309Z,86.51
2022-08-18T07:58:05.872Z,86.50
2022-08-18T07:59:01.192Z,86.56
2022-08-18T07:59:56.592Z,86.16
2022-08-18T08:01:00.147Z,86.17
2022-08-18T08:01:48.548Z,86.32
2022-08-18T08:02:42.887Z,86.07
2022-08-18T08:03:38.292Z,86.02
2022-08-18T08:04:33.744Z,86.01
2022-08-18T08:05:29.336Z,85.82
2022-08-18T08:06:24.344Z,85.68
2022-08-18T08:07:26.515Z,85.69
2022-08-18T08:08:15.421Z,85.63
2022-08-18T08:09:09.498Z,85.19
2022-08-18T08:10:04.653Z,84.90
2022-08-18T08:10:59.890Z,84.68
2022-08-18T08:11:54.980Z,84.58
2022-08-18T08:12:50.056Z,85.23
2022-08-18T08:13:55.361Z,85.31
2022-08-18T08:14:41.250Z,85.00
2022-08-18T08:15:36.885Z,84.27
2022-08-18T08:16:32.026Z,83.69
2022-08-18T08:17:26.976Z,83.58
2022-08-18T08:18:22.117Z,83.31
2022-08-18T08:19:17.199Z,83.39
2022-08-18T08:20:12.337Z,82.61
2022-08-18T08:21:07.440Z,82.58
2022-08-18T08:22:02.946Z,82.16
2022-08-18T08:22:58.350Z,82.49
2022-08-18T08:23:53.752Z,82.92
2022-08-18T08:24:49.186Z,82.41
2022-08-18T08:25:47.202Z,81.90
2022-08-18T08:26:40.173Z,80.66
2022-08-18T08:27:35.594Z,79.66
2022-08-18T08:28:31.024Z,80.47
2022-08-18T08:29:26.411Z,78.85
2022-08-18T08:30:21.927Z,79.15
2022-08-18T08:32:13.459Z,79.99
2022-08-18T08:33:07.545Z,79.91
2022-08-18T08:34:05.852Z,80.03
2022-08-18T08:34:57.635Z,79.17
2022-08-18T08:35:52.678Z,79.05
2022-08-18T08:36:47.653Z,79.38
2022-08-18T08:37:42.705Z,77.92
2022-08-18T08:38:43.058Z,78.09
2022-08-18T08:39:35.539Z,77.01
2022-08-18T08:40:29.551Z,75.72
2022-08-18T08:41:24.619Z,75.51
2022-08-18T08:42:30.570Z,75.23
2022-08-18T08:43:16.834Z,74.59
2022-08-18T08:44:11.328Z,74.23
2022-08-18T08:45:06.711Z,73.65
2022-08-18T08:46:02.374Z,72.23
2022-08-18T08:46:57.940Z,71.94
2022-08-18T08:47:53.543Z,71.80
2022-08-18T08:48:49.065Z,68.62
2022-08-18T08:49:44.601Z,68.97
2022-08-18T08:50:40.161Z,70.54
2022-08-18T08:51:35.582Z,71.10
2022-08-18T08:52:30.992Z,71.33
2022-08-18T08:53:26.531Z,71.09
2022-08-18T08:54:22.108Z,70.97
2022-08-18T08:55:17.199Z,71.06
2022-08-18T08:56:12.356Z,71.59
2022-08-18T08:57:08.927Z,72.07
2022-08-18T08:58:02.447Z,71.14
2022-08-18T08:58:57.680Z,72.06
2022-08-18T08:59:52.678Z,71.72
2022-08-18T09:00:47.669Z,71.08
2022-08-18T09:01:43.150Z,69.72
2022-08-18T09:02:47.956Z,68.82
2022-08-18T09:03:34.272Z,67.64
2022-08-18T09:04:28.350Z,68.27
2022-08-18T09:05:24.130Z,67.62
2022-08-18T09:06:19.792Z,67.54
2022-08-18T09:07:15.224Z,66.40
2022-08-18T09:08:10.732Z,67.32
2022-08-18T09:09:06.126Z,67.28
2022-08-18T09:10:01.653Z,67.87
2022-08-18T09:10:57.032Z,69.36
2022-08-18T09:11:52.565Z,69.64
2022-08-18T09:12:48.080Z,69.80
2022-08-18T09:13:44.636Z,68.72
2022-08-18T09:14:40.135Z,68.99
2022-08-18T09:15:35.637Z,70.47
2022-08-18T09:16:31.229Z,71.06
2022-08-18T09:17:33.996Z,70.55
2022-08-18T09:18:22.575Z,70.41
2022-08-18T09:19:16.650Z,70.21
2022-08-18T09:20:11.771Z,70.23
2022-08-18T09:21:06.764Z,70.19
2022-08-18T09:22:01.767Z,70.19
2022-08-18T09:22:56.915Z,69.84
2022-08-18T09:23:51.911Z,69.64
2022-08-18T09:24:47.033Z,69.78
2022-08-18T09:25:42.153Z,70.32
2022-08-18T09:26:39.197Z,69.45
2022-08-18T09:27:43.567Z,68.71
2022-08-18T09:28:29.134Z,68.77
2022-08-18T09:29:23.607Z,67.99
2022-08-18T09:30:18.943Z,68.55
2022-08-18T09:31:14.531Z,68.85
2022-08-18T09:32:11.743Z,67.18
2022-08-18T09:33:04.638Z,67.21
2022-08-18T09:34:06.719Z,67.06
2022-08-18T09:34:55.710Z,65.64
2022-08-18T09:36:45.762Z,64.89
2022-08-18T09:37:39.877Z,65.25
2022-08-18T09:38:35.021Z,64.84
2022-08-18T09:39:30.696Z,64.17
2022-08-18T09:41:22.548Z,64.39
2022-08-18T09:42:16.950Z,64.01
2022-08-18T09:43:12.442Z,62.95
2022-08-18T09:44:07.798Z,64.40
2022-08-18T09:45:02.847Z,64.36
2022-08-18T09:45:57.866Z,63.20
2022-08-18T09:46:52.863Z,63.09
2022-08-18T09:47:49.577Z,62.62
2022-08-18T09:48:44.678Z,61.93
2022-08-18T09:49:39.769Z,62.33
2022-08-18T09:50:34.905Z,61.86
2022-08-18T09:51:30.448Z,61.59
2022-08-18T09:52:25.881Z,61.22
2022-08-18T09:53:21.413Z,59.85
2022-08-18T09:54:21.322Z,57.98
2022-08-18T09:55:12.635Z,58.04
2022-08-18T09:56:08.174Z,57.99
2022-08-18T09:57:03.700Z,58.58
2022-08-18T09:57:59.239Z,58.98
2022-08-18T09:58:54.708Z,58.40
2022-08-18T09:59:50.360Z,58.36
2022-08-18T10:00:45.938Z,58.31
2022-08-18T10:01:41.056Z,58.71
2022-08-18T10:02:36.893Z,59.16
2022-08-18T10:03:31.742Z,59.18
2022-08-18T10:04:29.206Z,59.10
2022-08-18T10:05:21.241Z,59.10
2022-08-18T10:06:16.198Z,59.64
2022-08-18T10:07:11.277Z,59.67
2022-08-18T10:08:06.267Z,59.06
2022-08-18T10:09:01.283Z,59.63
2022-08-18T10:09:56.386Z,60.05
2022-08-18T10:10:59.486Z,61.15
2022-08-18T10:11:50.928Z,61.00
2022-08-18T10:12:44.011Z,60.04
2022-08-18T10:13:40.997Z,59.40
2022-08-18T10:14:36.006Z,60.16
2022-08-18T10:15:33.739Z,60.55
2022-08-18T10:16:28.069Z,61.28
2022-08-18T10:17:23.509Z,60.90
2022-08-18T10:18:17.153Z,60.37
2022-08-18T10:19:12.587Z,60.37
2022-08-18T10:20:08.953Z,61.61
2022-08-18T10:21:05.468Z,61.18
2022-08-18T10:21:59.911Z,60.87
2022-08-18T10:22:55.303Z,60.41
2022-08-18T10:24:02.708Z,60.39
2022-08-18T10:24:46.848Z,60.62
2022-08-18T10:25:41.066Z,60.35
2022-08-18T10:26:35.974Z,60.67
2022-08-18T10:27:31.042Z,60.05
2022-08-18T10:28:26.092Z,59.63
2022-08-18T10:29:21.204Z,60.08
2022-08-18T10:30:16.161Z,59.13
2022-08-18T10:31:11.177Z,59.28
2022-08-18T10:32:06.260Z,58.55
2022-08-18T10:33:10.920Z,58.16
2022-08-18T10:33:59.530Z,58.55
2022-08-18T10:34:53.636Z,58.15
2022-08-18T10:35:48.775Z,59.02
2022-08-18T10:36:43.743Z,58.48
2022-08-18T10:37:38.791Z,58.29
2022-08-18T10:38:33.900Z,58.32
2022-08-18T10:39:29.467Z,58.76
2022-08-18T10:40:26.457Z,58.52
2022-08-18T10:41:20.443Z,58.77
2022-08-18T10:42:15.909Z,58.80
2022-08-18T10:43:45.369Z,58.19
2022-08-18T10:44:27.815Z,58.53
2022-08-18T10:45:06.605Z,58.75
2022-08-18T10:46:24.660Z,58.50
2022-08-18T10:46:54.170Z,57.75
2022-08-18T10:47:49.059Z,57.33
2022-08-18T10:48:44.549Z,56.95
2022-08-18T10:49:46.713Z,56.19
2022-08-18T10:50:36.092Z,54.33
2022-08-18T10:51:30.191Z,53.98
2022-08-18T10:52:26.314Z,55.67
2022-08-18T10:54:18.367Z,55.74
2022-08-18T10:55:10.513Z,54.83
2022-08-18T10:56:05.531Z,54.34
2022-08-18T10:57:02.551Z,53.29
2022-08-18T10:57:58.076Z,54.71
2022-08-18T10:58:53.600Z,55.25
2022-08-18T10:59:54.632Z,54.81
2022-08-18T11:00:45.678Z,56.03
2022-08-18T11:01:40.217Z,55.00
2022-08-18T11:02:37.025Z,55.74
2022-08-18T11:03:52.170Z,54.72
2022-08-18T11:04:34.018Z,54.99
2022-08-18T11:05:23.489Z,54.90
2022-08-18T11:06:21.690Z,53.89
2022-08-18T11:07:13.463Z,53.62
2022-08-18T11:09:05.423Z,53.85
2022-08-18T11:10:28.511Z,54.15
2022-08-18T11:11:27.456Z,54.38
2022-08-18T11:12:46.239Z,53.35
2022-08-18T11:13:40.330Z,54.10
2022-08-18T11:14:35.383Z,53.00
2022-08-18T11:15:35.827Z,52.56
2022-08-18T11:16:26.520Z,53.65
2022-08-18T11:17:20.556Z,53.71
2022-08-18T11:18:15.623Z,53.20
2022-08-18T11:19:10.753Z,54.38
2022-08-18T11:20:07.953Z,54.51
2022-08-18T11:21:03.486Z,55.59
2022-08-18T11:21:59.873Z,56.56
2022-08-18T11:22:55.085Z,56.49
2022-08-18T11:23:50.013Z,55.83
2022-08-18T11:24:46.366Z,55.80
2022-08-18T11:25:40.473Z,55.97
2022-08-18T11:26:35.610Z,56.44
2022-08-18T11:27:30.673Z,56.61
2022-08-18T11:28:30.154Z,55.90
2022-08-18T11:29:21.822Z,56.08
2022-08-18T11:30:17.698Z,55.95
2022-08-18T11:31:10.930Z,54.99
2022-08-18T11:32:05.937Z,54.46
2022-08-18T11:33:01.349Z,54.87
2022-08-18T11:33:56.182Z,55.38
2022-08-18T11:34:51.215Z,55.41
2022-08-18T11:35:46.935Z,54.27
2022-08-18T11:36:49.959Z,54.73
2022-08-18T11:38:34.290Z,54.19
2022-08-18T11:39:37.718Z,54.96
2022-08-18T11:41:20.189Z,55.40
2022-08-18T11:42:15.820Z,54.63
2022-08-18T11:43:12.117Z,53.53
2022-08-18T11:44:06.545Z,53.08
2022-08-18T11:45:02.063Z,52.27
2022-08-18T11:45:57.660Z,52.68
2022-08-18T11:46:53.148Z,54.29
2022-08-18T11:47:48.823Z,53.47
2022-08-18T11:48:51.829Z,53.42
2022-08-18T11:49:40.736Z,53.80
2022-08-18T11:50:35.309Z,53.58
2022-08-18T11:51:30.793Z,53.15
2022-08-18T11:53:23.999Z,53.28
2022-08-18T11:54:17.542Z,54.44
2022-08-18T11:56:13.551Z,54.82
2022-08-18T11:57:04.168Z,55.30
2022-08-18T11:58:00.710Z,55.98
2022-08-18T11:58:55.321Z,56.11
2022-08-18T11:59:55.127Z,55.18
2022-08-18T12:00:47.509Z,55.45
2022-08-18T12:01:42.539Z,54.66
2022-08-18T12:02:37.547Z,54.93
2022-08-18T12:03:33.089Z,55.56
2022-08-18T12:04:29.006Z,56.12